Time;durP1;ratioP1;P1;durP2;ratioP2;P2;SDS_P1;SDS_P2;PMS_P1;PMS_P2;Temp;Humidity;BMP_temperature;BMP_pressure;BME280_temperature;BME280_humidity;BME280_pressure;Samples;Min_cycle;Max_cycle;Signal;HPM_P1;HPM_P2
2022/01/13 00:01:04;;;;;;;14.39;8.96;;;;;;;-2.19;93.18;101660.88;2015302;78;20183;-68
2022/01/13 00:04:10;;;;;;;13.17;9.09;;;;;;;-2.20;92.98;101662.53;2017435;80;20550;-68
2022/01/13 00:07:13;;;;;;;13.03;8.98;;;;;;;-2.20;93.16;101652.34;2017384;80;20223;-68
2022/01/13 00:10:15;;;;;;;12.17;8.58;;;;;;;-2.25;92.95;101655.28;2017565;80;20171;-68
2022/01/13 00:13:25;;;;;;;15.06;8.83;;;;;;;-2.25;93.13;101662.91;2017625;80;20180;-68
2022/01/13 00:16:55;;;;;;;15.42;8.78;;;;;;;-2.26;93.20;101662.03;2019073;77;21358;-68
2022/01/13 00:20:28;;;;;;;12.93;8.28;;;;;;;-2.27;93.19;101662.78;2022493;80;20740;-68
2022/01/13 00:26:46;;;;;;;19.09;8.91;;;;;;;-2.36;92.83;101664.56;2022163;80;20211;-68
2022/01/13 00:29:48;;;;;;;13.48;8.80;;;;;;;-2.39;92.85;101665.97;2022647;80;20337;-68
2022/01/13 00:35:59;;;;;;;13.42;8.02;;;;;;;-2.40;93.16;101671.81;2001772;80;20194;-68
2022/01/13 00:39:04;;;;;;;14.60;8.80;;;;;;;-2.39;93.30;101668.50;2005413;80;20200;-68
2022/01/13 00:42:08;;;;;;;13.01;8.40;;;;;;;-2.38;93.48;101666.09;2002722;81;20620;-68
2022/01/13 00:45:14;;;;;;;12.07;7.88;;;;;;;-2.38;93.56;101666.09;2001048;80;20217;-68
2022/01/13 00:48:17;;;;;;;12.46;8.21;;;;;;;-2.41;93.44;101675.13;2001901;78;20570;-68
2022/01/13 00:51:21;;;;;;;11.99;8.26;;;;;;;-2.42;93.37;101680.97;2005760;80;20290;-68
2022/01/13 00:54:24;;;;;;;12.37;7.84;;;;;;;-2.50;93.08;101678.69;2003237;81;20208;-67
2022/01/13 00:57:28;;;;;;;11.96;8.58;;;;;;;-2.51;93.16;101674.38;2002486;81;20204;-67
2022/01/13 01:00:30;;;;;;;11.47;7.86;;;;;;;-2.51;93.08;101678.56;1999394;78;22239;-67
2022/01/13 01:03:34;;;;;;;15.97;8.43;;;;;;;-2.53;93.03;101674.97;2002081;81;20201;-67
2022/01/13 01:06:37;;;;;;;16.04;8.96;;;;;;;-2.54;93.11;101684.25;2001702;81;20740;-67
2022/01/13 01:09:47;;;;;;;11.64;7.96;;;;;;;-2.58;92.99;101686.41;2001937;81;20161;-67
2022/01/13 01:12:50;;;;;;;14.30;8.60;;;;;;;-2.57;93.16;101691.63;2001856;81;20174;-67
2022/01/13 01:15:56;;;;;;;14.60;7.80;;;;;;;-2.57;93.19;101686.53;2000564;78;20932;-67
2022/01/13 01:19:05;;;;;;;12.20;7.13;;;;;;;-2.59;93.12;101684.63;2002035;81;20220;-67
2022/01/13 01:25:33;;;;;;;12.23;7.18;;;;;;;-2.63;93.11;101680.97;2001565;81;20227;-67
2022/01/13 01:28:45;;;;;;;10.54;6.82;;;;;;;-2.62;93.21;101681.84;2002628;81;20177;-67
2022/01/13 01:31:52;;;;;;;9.97;6.77;;;;;;;-2.63;93.29;101691.13;2000459;79;20243;-67
2022/01/13 01:34:56;;;;;;;12.39;7.44;;;;;;;-2.63;93.35;101698.75;2003080;81;20197;-67
2022/01/13 01:37:58;;;;;;;10.78;6.72;;;;;;;-2.63;93.43;101703.84;2002088;81;20165;-67
2022/01/13 01:41:01;;;;;;;11.37;6.73;;;;;;;-2.64;93.41;101696.09;2002047;81;20670;-68
2022/01/13 01:44:12;;;;;;;9.94;6.84;;;;;;;-2.66;93.38;101698.50;2001404;81;20565;-67
2022/01/13 01:47:17;;;;;;;9.27;6.83;;;;;;;-2.69;93.33;101708.41;2000002;78;20185;-67
2022/01/13 01:50:23;;;;;;;10.90;6.68;;;;;;;-2.71;93.28;101709.91;2002443;81;20169;-67
2022/01/13 01:53:27;;;;;;;12.39;7.31;;;;;;;-2.76;93.17;101695.91;2002049;81;20701;-67
2022/01/13 01:56:29;;;;;;;11.48;6.73;;;;;;;-2.76;93.27;101694.28;2001973;81;20862;-67
2022/01/13 01:59:35;;;;;;;10.01;6.89;;;;;;;-2.76;93.27;101695.91;2002014;81;20261;-67
2022/01/13 02:02:39;;;;;;;9.34;6.76;;;;;;;-2.75;93.37;101695.16;2000529;80;21352;-67
2022/01/13 02:05:42;;;;;;;12.36;6.61;;;;;;;-2.76;93.30;101695.91;2001658;81;20290;-67
2022/01/13 02:08:45;;;;;;;11.51;7.62;;;;;;;-2.82;93.07;101686.13;2001743;81;20196;-67
2022/01/13 02:11:53;;;;;;;9.48;7.62;;;;;;;-2.86;93.02;101691.72;2001842;81;20202;-67
2022/01/13 02:14:59;;;;;;;11.66;6.89;;;;;;;-2.87;92.91;101684.84;2002000;81;20656;-67
2022/01/13 02:18:15;;;;;;;10.41;7.22;;;;;;;-2.90;92.81;101694.72;1993236;78;20414;-67
2022/01/13 02:21:19;;;;;;;11.08;7.12;;;;;;;-2.90;92.98;101701.47;1990517;81;20663;-67
2022/01/13 02:24:23;;;;;;;9.00;6.38;;;;;;;-2.88;93.25;101694.84;1991152;81;20228;-67
2022/01/13 02:27:26;;;;;;;18.74;7.61;;;;;;;-2.87;93.32;101695.03;1990965;81;20178;-67
2022/01/13 02:30:29;;;;;;;16.40;7.99;;;;;;;-2.86;93.32;101693.38;1989664;78;21050;-67
2022/01/13 02:33:31;;;;;;;13.04;7.71;;;;;;;-2.93;93.07;101691.03;1995058;81;20202;-67
2022/01/13 02:36:35;;;;;;;15.22;8.40;;;;;;;-2.93;93.19;101691.94;1996044;81;20235;-67
2022/01/13 02:39:38;;;;;;;12.22;7.10;;;;;;;-2.94;93.04;101690.16;1995069;81;20311;-67
2022/01/13 02:42:40;;;;;;;14.19;8.87;;;;;;;-2.99;92.80;101677.81;1995626;81;20622;-67
2022/01/13 02:46:02;;;;;;;13.32;7.87;;;;;;;-2.97;92.96;101679.72;1994261;78;24355;-67
2022/01/13 02:49:07;;;;;;;14.56;8.56;;;;;;;-2.97;93.14;101676.28;2001704;80;20269;-67
2022/01/13 02:52:09;;;;;;;14.12;8.97;;;;;;;-2.97;93.18;101677.19;2006972;80;20172;-67
2022/01/13 02:55:12;;;;;;;13.37;8.01;;;;;;;-2.98;93.14;101680.50;2006742;80;20173;-67
2022/01/13 02:58:16;;;;;;;14.79;8.48;;;;;;;-2.99;93.36;101677.81;2007224;80;20169;-67
2022/01/13 03:01:19;;;;;;;14.20;8.31;;;;;;;-2.99;93.35;101687.97;2005534;78;24003;-67
2022/01/13 03:04:23;;;;;;;16.27;8.74;;;;;;;-2.97;93.53;101689.00;2008124;80;20312;-67
2022/01/13 03:07:30;;;;;;;14.91;7.91;;;;;;;-2.92;93.75;101697.91;2008038;80;20245;-67
2022/01/13 03:10:33;;;;;;;14.57;8.61;;;;;;;-2.90;93.82;101689.66;2008738;80;20222;-67
2022/01/13 03:13:35;;;;;;;18.03;9.84;;;;;;;-2.84;93.90;101691.84;2009289;80;20321;-67
2022/01/13 03:16:39;;;;;;;16.16;9.47;;;;;;;-2.72;94.44;101685.25;2007469;78;22018;-67
2022/01/13 03:19:42;;;;;;;16.39;9.78;;;;;;;-2.63;94.72;101682.59;2008761;80;20234;-67
2022/01/13 03:22:45;;;;;;;17.79;9.83;;;;;;;-2.50;95.18;101681.25;2008723;80;20242;-67
2022/01/13 03:25:48;;;;;;;17.96;10.11;;;;;;;-2.39;95.35;101686.31;2008859;80;20222;-67
2022/01/13 03:28:54;;;;;;;16.46;10.12;;;;;;;-2.32;95.45;101683.53;2008791;80;20256;-67
2022/01/13 03:31:57;;;;;;;20.93;10.71;;;;;;;-2.20;95.63;101690.53;2007391;78;20632;-67
2022/01/13 03:35:00;;;;;;;17.82;10.74;;;;;;;-2.13;95.73;101679.22;2009249;80;20238;-67
2022/01/13 03:38:04;;;;;;;19.38;11.50;;;;;;;-2.05;95.69;101680.72;2009164;80;20376;-67
2022/01/13 03:41:07;;;;;;;20.47;11.04;;;;;;;-2.00;95.73;101676.00;2008066;80;20169;-67
2022/01/13 03:44:18;;;;;;;15.03;9.22;;;;;;;-1.94;95.82;101684.16;2009228;80;20180;-68
2022/01/13 03:47:21;;;;;;;14.62;9.13;;;;;;;-1.89;95.88;101693.94;2007254;78;20333;-67
2022/01/13 03:50:23;;;;;;;15.63;10.16;;;;;;;-1.81;95.89;101699.66;2008652;80;20277;-67
2022/01/13 03:53:26;;;;;;;15.93;10.81;;;;;;;-1.75;95.92;101704.38;2008814;80;20254;-67
2022/01/13 03:57:07;;;;;;;16.83;10.47;;;;;;;-1.67;95.91;101704.22;2008218;80;20651;-68
2022/01/13 04:01:00;;;;;;;17.94;11.14;;;;;;;-1.61;95.81;101701.31;2007562;80;20191;-68
2022/01/13 04:04:03;;;;;;;20.02;11.13;;;;;;;-1.56;95.83;101695.81;2007794;80;20223;-68
2022/01/13 04:07:23;;;;;;;17.69;10.79;;;;;;;-1.49;96.01;101698.84;2007960;80;20224;-68
2022/01/13 04:10:52;;;;;;;16.47;10.23;;;;;;;-1.43;96.12;101695.16;2006693;80;20190;-68
2022/01/13 04:16:57;;;;;;;16.01;9.68;;;;;;;-1.32;95.98;101690.88;2002535;78;21059;-68
2022/01/13 04:19:59;;;;;;;16.51;10.48;;;;;;;-1.28;95.98;101688.69;2001965;80;20189;-68
2022/01/13 04:23:02;;;;;;;17.62;10.30;;;;;;;-1.24;96.01;101688.19;2002298;81;20317;-68
2022/01/13 04:26:06;;;;;;;15.99;10.16;;;;;;;-1.18;95.93;101692.00;2002126;81;20214;-68
2022/01/13 04:32:12;;;;;;;15.76;10.29;;;;;;;-1.10;95.86;101693.47;2006357;78;26894;-68
2022/01/13 04:35:15;;;;;;;16.81;10.61;;;;;;;-1.07;95.77;101696.28;2006976;80;20602;-68
2022/01/13 04:38:17;;;;;;;14.49;9.71;;;;;;;-1.04;95.73;101701.63;2007494;80;20594;-68
2022/01/13 04:41:38;;;;;;;16.06;10.71;;;;;;;-1.00;95.71;101699.44;2007514;80;20191;-68
2022/01/13 04:44:40;;;;;;;14.40;9.03;;;;;;;-0.96;95.69;101700.56;2007093;80;20723;-68
2022/01/13 04:47:43;;;;;;;14.32;9.14;;;;;;;-0.95;95.58;101698.13;2005369;78;20259;-69
2022/01/13 04:50:46;;;;;;;13.34;8.62;;;;;;;-0.92;95.64;101692.38;2006923;80;20689;-68
2022/01/13 04:53:48;;;;;;;12.51;8.41;;;;;;;-0.90;95.64;101693.38;2007763;80;20177;-68
2022/01/13 04:59:53;;;;;;;14.98;9.17;;;;;;;-0.86;95.68;101685.22;2005657;80;20245;-68
2022/01/13 05:02:57;;;;;;;12.48;8.36;;;;;;;-0.85;95.64;101681.91;2007263;78;21926;-68
2022/01/13 05:06:00;;;;;;;11.70;7.99;;;;;;;-0.83;95.64;101679.47;2002085;80;20686;-68
2022/01/13 05:09:03;;;;;;;10.41;6.99;;;;;;;-0.82;95.70;101679.59;2005744;80;20181;-68
2022/01/13 05:12:06;;;;;;;11.17;7.56;;;;;;;-0.78;95.66;101688.34;2006177;80;20211;-69
2022/01/13 05:15:15;;;;;;;13.99;8.36;;;;;;;-0.76;95.78;101686.81;2003994;80;20201;-68
2022/01/13 05:18:28;;;;;;;;;;;;;;;-0.70;95.80;101689.84;2006161;78;20177;-68
2022/01/13 05:24:46;;;;;;;14.28;8.42;;;;;;;-0.70;95.51;101674.56;2005730;80;20201;-68
2022/01/13 05:27:48;;;;;;;13.31;8.20;;;;;;;-0.71;95.68;101670.22;2006171;80;20198;-68
2022/01/13 05:30:51;;;;;;;13.74;8.48;;;;;;;-0.70;95.77;101678.00;2004442;78;23168;-68
2022/01/13 05:33:54;;;;;;;16.03;9.28;;;;;;;-0.68;95.92;101671.34;2005639;80;20295;-68
2022/01/13 05:36:56;;;;;;;14.71;8.37;;;;;;;-0.64;95.93;101672.47;2005541;80;20196;-69
2022/01/13 05:39:59;;;;;;;14.63;8.31;;;;;;;-0.62;95.89;101671.81;2005738;80;20165;-68
2022/01/13 05:43:04;;;;;;;14.66;8.64;;;;;;;-0.59;95.97;101676.25;2005665;80;20210;-69
2022/01/13 05:46:11;;;;;;;15.23;9.08;;;;;;;-0.57;95.98;101667.03;2007327;78;24148;-68
2022/01/13 05:49:14;;;;;;;15.92;8.29;;;;;;;-0.52;96.01;101670.84;2005511;80;20199;-68
2022/01/13 05:52:17;;;;;;;13.43;7.94;;;;;;;-0.49;95.91;101672.75;2006269;80;21183;-69
2022/01/13 05:55:20;;;;;;;15.13;8.56;;;;;;;-0.48;95.86;101675.41;2005148;80;20198;-69
2022/01/13 05:58:23;;;;;;;14.71;8.70;;;;;;;-0.47;95.90;101673.75;2004690;80;20327;-69
2022/01/13 06:01:26;;;;;;;17.32;8.56;;;;;;;-0.44;96.00;101667.22;2003866;80;20561;-69
2022/01/13 06:04:29;;;;;;;18.53;9.16;;;;;;;-0.42;95.96;101674.97;2005341;80;20890;-69
2022/01/13 06:07:32;;;;;;;15.31;8.43;;;;;;;-0.41;95.99;101672.53;2006092;80;20181;-68
2022/01/13 06:10:38;;;;;;;17.54;9.92;;;;;;;-0.38;95.96;101670.22;2005214;80;20616;-69
2022/01/13 06:13:40;;;;;;;13.77;8.18;;;;;;;-0.36;95.98;101678.91;2005939;80;20215;-69
2022/01/13 06:16:43;;;;;;;16.27;8.93;;;;;;;-0.35;95.92;101673.03;2005221;78;21004;-69
2022/01/13 06:19:45;;;;;;;21.18;10.57;;;;;;;-0.32;95.88;101677.47;2005326;80;20161;-69
2022/01/13 06:22:50;;;;;;;20.38;9.89;;;;;;;-0.28;95.96;101676.91;2004939;80;21273;-69
2022/01/13 06:25:53;;;;;;;17.29;9.36;;;;;;;-0.26;95.94;101672.81;2007185;80;20173;-69
2022/01/13 06:28:55;;;;;;;18.01;10.50;;;;;;;-0.24;95.88;101665.28;2007507;80;20202;-69
2022/01/13 06:31:59;;;;;;;16.79;9.59;;;;;;;-0.22;95.92;101669.72;2001552;78;23163;-69
2022/01/13 06:35:02;;;;;;;20.71;10.90;;;;;;;-0.20;95.90;101674.94;2001748;81;20368;-69
2022/01/13 06:38:05;;;;;;;18.63;10.81;;;;;;;-0.20;95.88;101678.38;2001975;81;20193;-69
2022/01/13 06:41:07;;;;;;;22.83;10.56;;;;;;;-0.18;95.91;101679.41;2001091;81;20213;-69
2022/01/13 06:44:10;;;;;;;24.13;11.07;;;;;;;-0.19;95.84;101674.16;2000666;81;20274;-69
2022/01/13 06:47:12;;;;;;;21.67;10.82;;;;;;;-0.18;95.86;101673.38;1999982;78;20177;-69
2022/01/13 06:50:17;;;;;;;19.42;10.17;;;;;;;-0.19;95.86;101676.72;2002509;81;20191;-69
2022/01/13 06:53:21;;;;;;;19.86;11.07;;;;;;;-0.18;95.81;101679.41;2001612;81;20209;-69
2022/01/13 06:56:24;;;;;;;20.22;10.08;;;;;;;-0.19;95.72;101687.81;2001625;81;20182;-69
2022/01/13 06:59:27;;;;;;;17.71;10.38;;;;;;;-0.19;95.69;101692.03;2001559;81;20181;-69
2022/01/13 07:02:31;;;;;;;13.96;9.09;;;;;;;-0.19;95.67;101686.91;2000192;78;20317;-69
2022/01/13 07:05:34;;;;;;;14.36;9.37;;;;;;;-0.21;95.61;101686.81;2002149;81;20876;-69
2022/01/13 07:08:36;;;;;;;14.02;8.78;;;;;;;-0.22;95.57;101692.69;2001611;81;20174;-69
2022/01/13 07:11:40;;;;;;;14.73;8.78;;;;;;;-0.23;95.51;101696.00;2001700;81;20206;-68
2022/01/13 07:14:43;;;;;;;14.01;9.00;;;;;;;-0.22;95.48;101715.66;2001664;81;20173;-68
2022/01/13 07:17:47;;;;;;;14.28;9.14;;;;;;;-0.22;95.57;101709.66;2002573;78;21014;-69
2022/01/13 07:20:49;;;;;;;17.72;10.24;;;;;;;-0.20;95.60;101715.78;2001844;81;20225;-69
2022/01/13 07:23:52;;;;;;;18.29;10.61;;;;;;;-0.20;95.71;101714.13;2001626;81;20196;-69
2022/01/13 07:26:55;;;;;;;20.90;11.24;;;;;;;-0.19;95.62;101717.56;2001308;81;20606;-68
2022/01/13 07:29:58;;;;;;;19.77;11.54;;;;;;;-0.20;95.63;101719.22;2001916;81;20690;-69
2022/01/13 07:33:01;;;;;;;23.95;12.06;;;;;;;-0.18;95.76;101720.25;1999464;78;20545;-69
2022/01/13 07:36:03;;;;;;;22.61;12.01;;;;;;;-0.15;95.80;101723.03;2001902;81;20781;-69
2022/01/13 07:39:07;;;;;;;22.06;12.17;;;;;;;-0.12;95.78;101732.56;2002135;81;20247;-71
2022/01/13 07:42:10;;;;;;;24.01;11.40;;;;;;;-0.11;95.79;101725.03;2001585;81;20653;-68
2022/01/13 07:45:16;;;;;;;20.30;11.30;;;;;;;-0.09;95.74;101731.16;2000132;80;20731;-68
2022/01/13 07:48:19;;;;;;;19.88;11.10;;;;;;;-0.06;95.74;101730.47;1997703;79;22531;-70
2022/01/13 07:51:22;;;;;;;17.84;10.04;;;;;;;-0.05;95.71;101729.72;2000945;81;20414;-69
2022/01/13 07:54:28;;;;;;;17.01;10.20;;;;;;;-0.04;95.66;101723.81;2001086;81;20678;-69
2022/01/13 07:57:34;;;;;;;15.86;9.55;;;;;;;-0.04;95.56;101716.16;2002596;81;20440;-69
2022/01/13 08:00:37;;;;;;;14.83;8.97;;;;;;;-0.01;95.67;101722.38;2001010;78;30357;-70
2022/01/13 08:03:40;;;;;;;19.35;10.91;;;;;;;-0.02;95.53;101717.16;2002630;81;20215;-69
2022/01/13 08:06:43;;;;;;;17.36;10.74;;;;;;;0.03;95.60;101727.75;2002283;81;20798;-69
2022/01/13 08:09:46;;;;;;;16.93;9.97;;;;;;;0.04;95.53;101725.31;2002405;81;20405;-69
2022/01/13 08:12:49;;;;;;;15.54;9.45;;;;;;;0.05;95.42;101724.53;2001987;81;20640;-69
2022/01/13 08:15:54;;;;;;;15.27;10.16;;;;;;;0.08;95.52;101723.88;2001824;80;23790;-69
2022/01/13 08:22:18;;;;;;;16.93;9.40;;;;;;;0.09;95.37;101723.09;2002577;81;20205;-69
2022/01/13 08:25:22;;;;;;;15.73;9.25;;;;;;;0.11;95.39;101722.41;2002721;81;20211;-69
2022/01/13 08:28:28;;;;;;;19.56;9.50;;;;;;;0.14;95.39;101720.09;2002560;81;20308;-70
2022/01/13 08:31:31;;;;;;;14.60;9.69;;;;;;;0.14;95.16;101722.66;2003725;78;22880;-69
2022/01/13 08:34:34;;;;;;;16.68;9.69;;;;;;;0.12;95.07;101719.09;2007833;80;20218;-69
2022/01/13 08:37:37;;;;;;;17.64;9.78;;;;;;;0.15;95.14;101709.09;2007523;80;20212;-69
2022/01/13 08:40:39;;;;;;;16.84;10.01;;;;;;;0.19;95.12;101715.34;2007768;80;20173;-69
2022/01/13 08:43:42;;;;;;;17.36;9.97;;;;;;;0.20;95.03;101715.47;2006950;80;20364;-69
2022/01/13 08:46:45;;;;;;;17.75;10.11;;;;;;;0.25;95.03;101723.47;2006285;78;20441;-69
2022/01/13 08:49:48;;;;;;;17.98;10.07;;;;;;;0.24;94.82;101724.22;2007686;80;20536;-69
2022/01/13 08:52:51;;;;;;;16.23;9.39;;;;;;;0.26;94.75;101726.13;2007182;80;20364;-69
2022/01/13 08:55:58;;;;;;;15.90;9.29;;;;;;;0.28;94.83;101734.78;2007243;80;20750;-69
2022/01/13 08:59:01;;;;;;;15.69;9.40;;;;;;;0.33;94.87;101731.66;2007537;80;20372;-69
2022/01/13 09:02:04;;;;;;;15.98;9.84;;;;;;;0.34;94.71;101729.22;2005309;80;21999;-69
2022/01/13 09:05:07;;;;;;;15.09;8.83;;;;;;;0.35;94.62;101733.56;2007479;80;20724;-69
2022/01/13 09:08:11;;;;;;;15.39;8.68;;;;;;;0.39;94.62;101721.94;2007734;80;20180;-69
2022/01/13 09:11:14;;;;;;;14.93;9.99;;;;;;;0.38;94.48;101733.81;2007218;80;20320;-70
2022/01/13 09:14:21;;;;;;;15.81;9.76;;;;;;;0.40;94.37;101731.38;2007067;80;20430;-69
2022/01/13 09:17:24;;;;;;;13.95;8.66;;;;;;;0.41;94.27;101736.59;2007658;79;22783;-68
2022/01/13 09:20:27;;;;;;;15.66;10.16;;;;;;;0.43;94.26;101724.81;2008037;80;20783;-68
2022/01/13 09:23:31;;;;;;;15.33;9.47;;;;;;;0.45;94.16;101718.16;2007353;80;20278;-68
2022/01/13 09:26:34;;;;;;;17.92;10.05;;;;;;;0.48;94.06;101725.13;2007006;80;20185;-69
2022/01/13 09:29:37;;;;;;;16.80;10.18;;;;;;;0.53;94.03;101731.47;2007669;80;20315;-69
2022/01/13 09:32:39;;;;;;;26.46;14.43;;;;;;;0.56;94.00;101732.59;2007133;78;20202;-67
2022/01/13 09:35:42;;;;;;;25.69;14.32;;;;;;;0.63;94.07;101736.50;2008369;80;20999;-70
2022/01/13 09:38:45;;;;;;;19.35;10.98;;;;;;;0.70;94.00;101731.03;2006578;80;20320;-68
2022/01/13 09:41:50;;;;;;;25.13;13.24;;;;;;;0.73;93.90;101736.41;2006337;80;20367;-69
2022/01/13 09:44:55;;;;;;;20.00;10.99;;;;;;;0.78;93.83;101732.50;2006307;80;20311;-69
2022/01/13 09:47:57;;;;;;;17.99;10.64;;;;;;;0.80;93.55;101740.28;2004030;78;20885;-68
2022/01/13 09:51:00;;;;;;;21.48;11.96;;;;;;;0.84;93.48;101735.47;2006234;80;20323;-69
2022/01/13 09:54:04;;;;;;;20.45;11.43;;;;;;;0.88;93.25;101741.69;2005518;80;20213;-69
2022/01/13 09:57:08;;;;;;;22.31;11.65;;;;;;;0.93;93.17;101739.50;2004595;80;20311;-68
2022/01/13 10:00:24;;;;;;;18.16;10.88;;;;;;;0.96;93.08;101732.91;2003170;80;20596;-68
2022/01/13 10:03:28;;;;;;;19.59;12.63;;;;;;;1.03;92.87;101740.25;2004448;80;20434;-69
2022/01/13 10:06:40;;;;;;;23.99;13.40;;;;;;;1.08;92.56;101744.03;2004276;80;20843;-69
2022/01/13 10:09:54;;;;;;;26.31;14.27;;;;;;;1.11;92.29;101740.81;2005112;80;20794;-68
2022/01/13 10:13:07;;;;;;;27.00;14.77;;;;;;;1.17;92.21;101736.13;2003870;80;20315;-69
2022/01/13 10:16:23;;;;;;;22.84;12.99;;;;;;;1.20;91.82;101741.44;2002603;78;24158;-69
2022/01/13 10:19:36;;;;;;;24.42;12.48;;;;;;;1.27;91.66;101737.66;2003200;80;20821;-69
2022/01/13 10:22:40;;;;;;;22.19;12.85;;;;;;;1.32;91.40;101726.06;2004501;80;20315;-69
2022/01/13 10:25:45;;;;;;;23.64;12.21;;;;;;;1.40;91.44;101725.81;2005750;80;21356;-69
2022/01/13 10:28:52;;;;;;;21.51;13.16;;;;;;;1.37;90.65;101720.47;2006249;80;20328;-69
2022/01/13 10:31:54;;;;;;;19.63;11.61;;;;;;;1.44;90.74;101719.25;2003617;78;20319;-69
2022/01/13 10:35:12;;;;;;;19.90;12.90;;;;;;;1.48;90.41;101713.56;2005388;80;20327;-69
2022/01/13 10:38:16;;;;;;;19.04;12.60;;;;;;;1.47;90.05;101716.91;2005744;80;21209;-69
2022/01/13 10:42:11;;;;;;;20.83;13.07;;;;;;;1.52;90.00;101713.88;2005087;80;20348;-69
2022/01/13 10:45:08;;;;;;;18.83;11.85;;;;;;;1.61;89.99;101702.47;2004107;80;20992;-69
2022/01/13 10:48:17;;;;;;;22.77;13.13;;;;;;;1.72;89.95;101707.56;2005466;78;21889;-68
2022/01/13 10:51:24;;;;;;;28.70;15.93;;;;;;;1.83;89.85;101709.97;2005533;80;20940;-68
2022/01/13 10:54:26;;;;;;;30.33;15.57;;;;;;;1.90;89.43;101713.03;2004187;80;20177;-68
2022/01/13 10:57:30;;;;;;;23.85;14.51;;;;;;;2.00;89.33;101704.31;2005199;80;20350;-68
2022/01/13 11:00:35;;;;;;;25.13;16.11;;;;;;;2.04;88.86;101706.28;2003041;78;26308;-69
2022/01/13 11:03:43;;;;;;;26.58;15.54;;;;;;;2.06;88.38;101702.16;2005848;80;20331;-69
2022/01/13 11:06:46;;;;;;;27.71;16.40;;;;;;;2.12;88.28;101692.28;2005146;80;20328;-68
2022/01/13 11:09:53;;;;;;;21.30;13.84;;;;;;;2.09;87.84;101694.66;2005653;80;20210;-68
2022/01/13 11:12:58;;;;;;;24.20;14.63;;;;;;;2.12;87.39;101690.63;2005346;80;20365;-68
2022/01/13 11:16:01;;;;;;;24.70;13.71;;;;;;;2.17;87.22;101695.19;2001992;78;21343;-68
2022/01/13 11:19:05;;;;;;;19.67;12.80;;;;;;;2.20;86.65;101700.50;1999906;81;20354;-68
2022/01/13 11:22:09;;;;;;;22.79;12.81;;;;;;;2.25;86.44;101701.69;2000266;81;20316;-68
2022/01/13 11:25:15;;;;;;;21.80;12.93;;;;;;;2.34;86.51;101695.50;2000347;81;20375;-69
2022/01/13 11:28:17;;;;;;;19.81;12.77;;;;;;;2.41;86.42;101697.66;2000093;81;21160;-68
2022/01/13 11:31:20;;;;;;;22.70;13.20;;;;;;;2.48;86.05;101695.50;1999038;78;20839;-68
2022/01/13 11:34:24;;;;;;;23.16;13.66;;;;;;;2.49;85.21;101690.47;2000442;81;20429;-68
2022/01/13 11:37:28;;;;;;;23.66;14.98;;;;;;;2.60;85.53;101688.59;2000461;81;20320;-69
2022/01/13 11:40:40;;;;;;;20.27;13.38;;;;;;;2.75;85.39;101687.03;1999696;81;20357;-69
2022/01/13 11:43:43;;;;;;;23.95;14.36;;;;;;;2.85;84.77;101686.78;2000501;81;20341;-68
2022/01/13 11:46:48;;;;;;;26.31;13.89;;;;;;;2.87;84.25;101686.88;1998268;78;21221;-68
2022/01/13 11:50:03;;;;;;;22.20;14.13;;;;;;;2.91;83.91;101686.31;1996888;81;20316;-69
2022/01/13 11:53:18;;;;;;;23.60;13.94;;;;;;;2.90;83.56;101685.44;2000341;81;20312;-69
2022/01/13 11:56:23;;;;;;;22.73;13.69;;;;;;;2.82;82.86;101678.03;2001313;81;20876;-68
2022/01/13 11:59:25;;;;;;;24.00;13.95;;;;;;;2.85;83.15;101683.34;2001466;81;20334;-68
2022/01/13 12:02:34;;;;;;;18.31;11.69;;;;;;;2.92;83.42;101676.16;2001795;80;39866;-68
2022/01/13 12:05:42;;;;;;;20.94;12.08;;;;;;;2.97;83.26;101667.06;2002224;81;20316;-68
2022/01/13 12:08:56;;;;;;;16.99;10.96;;;;;;;3.00;82.70;101671.50;2001207;81;20185;-69
2022/01/13 12:11:59;;;;;;;13.86;9.54;;;;;;;3.07;82.70;101653.13;2001546;81;20193;-67
2022/01/13 12:15:20;;;;;;;12.13;8.75;;;;;;;3.10;82.26;101661.00;2000890;80;20367;-68
2022/01/13 12:19:12;;;;;;;12.35;9.04;;;;;;;3.14;82.01;101656.94;2005239;80;20364;-68
2022/01/13 12:22:35;;;;;;;11.89;7.97;;;;;;;3.19;82.04;101650.41;2001419;81;20313;-68
2022/01/13 12:25:38;;;;;;;11.73;8.35;;;;;;;3.23;82.03;101661.00;2002039;81;20360;-68
2022/01/13 12:28:40;;;;;;;13.80;8.96;;;;;;;3.26;81.80;101650.00;2001748;81;20363;-68
2022/01/13 12:31:51;;;;;;;13.91;8.76;;;;;;;3.24;81.56;101644.78;2001118;78;30901;-68
2022/01/13 12:34:54;;;;;;;15.77;8.84;;;;;;;3.28;81.50;101639.03;2001118;81;20874;-68
2022/01/13 12:38:11;;;;;;;12.89;8.25;;;;;;;3.30;81.34;101637.44;2001146;81;20312;-68
2022/01/13 12:41:25;;;;;;;14.43;8.73;;;;;;;3.35;81.17;101635.16;2001411;81;21126;-68
2022/01/13 12:47:52;;;;;;;13.98;8.81;;;;;;;3.48;80.98;101634.22;1999325;79;20883;-68
2022/01/13 12:50:55;;;;;;;16.21;9.00;;;;;;;3.51;80.73;101613.84;2001131;81;20358;-68
2022/01/13 12:53:58;;;;;;;15.59;9.98;;;;;;;3.54;80.58;101614.03;2001337;81;22389;-68
2022/01/13 12:57:06;;;;;;;15.16;8.73;;;;;;;3.58;80.57;101603.13;2000765;81;20304;-68
2022/01/13 13:00:09;;;;;;;14.43;8.61;;;;;;;3.61;80.23;101599.09;1998627;80;20333;-68
2022/01/13 13:03:12;;;;;;;12.64;8.66;;;;;;;3.70;80.24;101590.13;1999975;78;20190;-68
2022/01/13 13:06:16;;;;;;;14.44;8.57;;;;;;;3.77;80.41;101592.25;1997019;81;20468;-68
2022/01/13 13:09:22;;;;;;;12.64;8.45;;;;;;;3.82;79.85;101588.28;1999876;81;20944;-68
2022/01/13 13:12:27;;;;;;;9.79;7.25;;;;;;;3.83;79.04;101592.63;2001312;81;20352;-68
2022/01/13 13:18:34;;;;;;;10.86;7.61;;;;;;;3.84;78.57;101584.13;2001006;81;20352;-68
2022/01/13 13:21:37;;;;;;;10.18;7.41;;;;;;;3.88;78.72;101586.94;2001070;81;20337;-68
2022/01/13 13:24:42;;;;;;;12.35;8.48;;;;;;;3.93;78.17;101587.19;2000864;81;20366;-68
2022/01/13 13:27:45;;;;;;;13.46;7.50;;;;;;;3.97;78.29;101581.47;2001608;81;20317;-68
2022/01/13 13:30:50;;;;;;;11.40;7.71;;;;;;;3.99;78.25;101573.84;1998515;78;22900;-68
2022/01/13 13:34:14;;;;;;;12.34;8.20;;;;;;;4.03;78.20;101576.66;2000892;81;21159;-68
2022/01/13 13:37:17;;;;;;;10.88;7.51;;;;;;;4.08;78.26;101569.19;2000927;81;20329;-68
2022/01/13 13:40:24;;;;;;;11.26;8.27;;;;;;;4.10;78.44;101570.16;2001118;81;20304;-68
2022/01/13 13:43:32;;;;;;;12.73;7.94;;;;;;;4.12;78.50;101566.00;2000705;81;20388;-69
2022/01/13 13:46:35;;;;;;;11.43;7.91;;;;;;;4.15;78.14;101559.38;1998804;78;22025;-68
2022/01/13 13:49:38;;;;;;;9.06;7.44;;;;;;;4.18;77.96;101558.66;2001525;81;20358;-68
2022/01/13 13:52:41;;;;;;;9.55;7.25;;;;;;;4.18;78.05;101563.78;2000421;80;20366;-68
2022/01/13 13:56:00;;;;;;;10.30;7.44;;;;;;;4.17;78.02;101562.91;2000465;81;20324;-68
2022/01/13 13:59:03;;;;;;;8.73;6.46;;;;;;;4.17;77.95;101565.47;1998186;81;20324;-68
2022/01/13 14:02:29;;;;;;;10.20;7.26;;;;;;;4.16;77.85;101563.72;1999094;78;23197;-68
2022/01/13 14:05:41;;;;;;;11.75;6.91;;;;;;;4.16;78.13;101568.84;2000532;81;20777;-68
2022/01/13 14:08:55;;;;;;;8.99;7.11;;;;;;;4.14;78.02;101577.28;2001401;81;20324;-68
2022/01/13 14:11:57;;;;;;;8.73;6.90;;;;;;;4.13;77.87;101580.63;2001733;81;20370;-68
2022/01/13 14:15:17;;;;;;;11.94;7.71;;;;;;;4.12;77.65;101576.28;2001243;81;20355;-68
2022/01/13 14:18:21;;;;;;;9.77;6.97;;;;;;;4.10;77.93;101581.34;2000412;78;22597;-67
2022/01/13 14:21:24;;;;;;;9.16;6.68;;;;;;;4.10;77.92;101577.88;2000597;81;20317;-68
2022/01/13 14:24:35;;;;;;;8.74;6.71;;;;;;;4.08;78.01;101574.34;1999632;81;20450;-67
2022/01/13 14:27:55;;;;;;;11.39;7.36;;;;;;;4.09;77.94;101578.69;2000134;81;20364;-68
2022/01/13 14:31:09;;;;;;;13.52;7.99;;;;;;;4.09;77.90;101581.25;2001402;78;20908;-68
2022/01/13 14:34:12;;;;;;;13.44;8.81;;;;;;;4.09;78.00;101574.44;2005718;80;20499;-68
2022/01/13 14:37:15;;;;;;;12.48;8.63;;;;;;;4.10;78.03;101571.06;2006002;80;20323;-68
2022/01/13 14:40:18;;;;;;;12.41;9.02;;;;;;;4.09;77.69;101566.72;2005610;80;21197;-68
2022/01/13 14:43:22;;;;;;;12.76;9.39;;;;;;;4.07;77.77;101563.19;2005436;80;20436;-67
2022/01/13 14:46:26;;;;;;;16.21;10.02;;;;;;;4.06;77.92;101570.81;2001664;78;25364;-68
2022/01/13 14:49:30;;;;;;;14.06;9.27;;;;;;;4.05;77.99;101569.91;2000638;81;20465;-68